sensor_id;sensor_type;location;lat;lon;timestamp;pressure;altitude;pressure_sealevel;temperature;humidity
53526;BME280;40551;50.478;19.378;2022-08-05T00:01:32;97981.96;;;15.25;70.50
53526;BME280;40551;50.478;19.378;2022-08-05T00:04:16;97979.08;;;15.23;70.64
53526;BME280;40551;50.478;19.378;2022-08-05T00:06:45;97978.48;;;15.22;70.81
53526;BME280;40551;50.478;19.378;2022-08-05T00:09:18;97977.21;;;15.23;70.88
53526;BME280;40551;50.478;19.378;2022-08-05T00:11:47;97977.31;;;15.23;70.87
53526;BME280;40551;50.478;19.378;2022-08-05T00:14:23;97974.88;;;15.24;70.95
53526;BME280;40551;50.478;19.378;2022-08-05T00:16:57;97974.25;;;15.25;70.94
53526;BME280;40551;50.478;19.378;2022-08-05T00:19:29;97969.21;;;15.25;70.99
53526;BME280;40551;50.478;19.378;2022-08-05T00:22:01;97969.98;;;15.21;70.75
53526;BME280;40551;50.478;19.378;2022-08-05T00:24:33;97969.50;;;15.16;70.77
53526;BME280;40551;50.478;19.378;2022-08-05T00:27:01;97969.35;;;15.11;70.75
53526;BME280;40551;50.478;19.378;2022-08-05T00:29:37;97969.05;;;15.05;70.94
53526;BME280;40551;50.478;19.378;2022-08-05T00:32:06;97966.25;;;15.00;70.88
53526;BME280;40551;50.478;19.378;2022-08-05T00:34:44;97966.10;;;14.92;70.90
53526;BME280;40551;50.478;19.378;2022-08-05T00:37:32;97962.08;;;14.81;70.95
53526;BME280;40551;50.478;19.378;2022-08-05T00:40:23;97959.48;;;14.75;71.34
53526;BME280;40551;50.478;19.378;2022-08-05T00:42:58;97960.25;;;14.72;71.60
53526;BME280;40551;50.478;19.378;2022-08-05T00:45:26;97956.89;;;14.68;71.58
53526;BME280;40551;50.478;19.378;2022-08-05T00:48:07;97960.27;;;14.65;71.83
53526;BME280;40551;50.478;19.378;2022-08-05T00:50:37;97957.24;;;14.66;71.80
53526;BME280;40551;50.478;19.378;2022-08-05T00:53:08;97953.15;;;14.65;71.99
53526;BME280;40551;50.478;19.378;2022-08-05T00:55:56;97950.38;;;14.65;71.89
53526;BME280;40551;50.478;19.378;2022-08-05T00:58:25;97950.10;;;14.61;71.94
53526;BME280;40551;50.478;19.378;2022-08-05T01:00:54;97951.42;;;14.56;71.86
53526;BME280;40551;50.478;19.378;2022-08-05T01:03:23;97947.55;;;14.55;72.29
53526;BME280;40551;50.478;19.378;2022-08-05T01:06:00;97948.02;;;14.57;72.31
53526;BME280;40551;50.478;19.378;2022-08-05T01:08:31;97944.23;;;14.58;72.23
53526;BME280;40551;50.478;19.378;2022-08-05T01:11:13;97940.52;;;14.57;72.07
53526;BME280;40551;50.478;19.378;2022-08-05T01:13:59;97939.73;;;14.53;71.86
53526;BME280;40551;50.478;19.378;2022-08-05T01:16:39;97934.39;;;14.45;71.80
53526;BME280;40551;50.478;19.378;2022-08-05T01:19:13;97928.83;;;14.36;72.01
53526;BME280;40551;50.478;19.378;2022-08-05T01:22:20;97925.18;;;14.28;72.34
53526;BME280;40551;50.478;19.378;2022-08-05T01:25:19;97927.92;;;14.25;72.59
53526;BME280;40551;50.478;19.378;2022-08-05T01:31:09;97914.30;;;14.29;72.83
53526;BME280;40551;50.478;19.378;2022-08-05T01:33:45;97914.02;;;14.31;72.94
53526;BME280;40551;50.478;19.378;2022-08-05T01:36:16;97912.59;;;14.30;72.69
53526;BME280;40551;50.478;19.378;2022-08-05T01:38:49;97909.26;;;14.27;72.62
53526;BME280;40551;50.478;19.378;2022-08-05T01:41:20;97913.73;;;14.24;72.73
53526;BME280;40551;50.478;19.378;2022-08-05T01:43:53;97909.26;;;14.20;72.75
53526;BME280;40551;50.478;19.378;2022-08-05T01:46:22;97908.33;;;14.16;72.74
53526;BME280;40551;50.478;19.378;2022-08-05T01:49:14;97905.18;;;14.15;72.88
53526;BME280;40551;50.478;19.378;2022-08-05T01:52:00;97900.52;;;14.11;72.92
53526;BME280;40551;50.478;19.378;2022-08-05T01:54:47;97900.40;;;14.09;72.99
53526;BME280;40551;50.478;19.378;2022-08-05T01:57:25;97899.42;;;14.07;72.99
53526;BME280;40551;50.478;19.378;2022-08-05T02:00:15;97900.29;;;14.05;73.10
53526;BME280;40551;50.478;19.378;2022-08-05T02:02:51;97899.91;;;14.02;73.29
53526;BME280;40551;50.478;19.378;2022-08-05T02:05:27;97894.65;;;13.97;73.21
53526;BME280;40551;50.478;19.378;2022-08-05T02:07:57;97892.80;;;13.92;73.51
53526;BME280;40551;50.478;19.378;2022-08-05T02:10:33;97892.63;;;13.91;73.51
53526;BME280;40551;50.478;19.378;2022-08-05T02:13:09;97890.03;;;13.89;73.45
53526;BME280;40551;50.478;19.378;2022-08-05T02:15:46;97888.11;;;13.87;73.67
53526;BME280;40551;50.478;19.378;2022-08-05T02:18:23;97883.97;;;13.85;73.65
53526;BME280;40551;50.478;19.378;2022-08-05T02:21:05;97880.73;;;13.84;73.88
53526;BME280;40551;50.478;19.378;2022-08-05T02:23:45;97878.98;;;13.84;73.96
53526;BME280;40551;50.478;19.378;2022-08-05T02:26:21;97878.77;;;13.83;73.99
53526;BME280;40551;50.478;19.378;2022-08-05T02:28:55;97879.11;;;13.82;73.99
53526;BME280;40551;50.478;19.378;2022-08-05T02:31:28;97876.98;;;13.82;74.00
53526;BME280;40551;50.478;19.378;2022-08-05T02:34:05;97876.67;;;13.83;74.09
53526;BME280;40551;50.478;19.378;2022-08-05T02:36:41;97879.35;;;13.83;74.09
53526;BME280;40551;50.478;19.378;2022-08-05T02:39:11;97876.81;;;13.80;73.85
53526;BME280;40551;50.478;19.378;2022-08-05T02:41:41;97876.23;;;13.75;73.96
53526;BME280;40551;50.478;19.378;2022-08-05T02:44:28;97872.95;;;13.70;74.17
53526;BME280;40551;50.478;19.378;2022-08-05T02:46:58;97872.84;;;13.68;74.28
53526;BME280;40551;50.478;19.378;2022-08-05T02:49:31;97867.14;;;13.67;74.41
53526;BME280;40551;50.478;19.378;2022-08-05T02:52:06;97869.62;;;13.68;74.49
53526;BME280;40551;50.478;19.378;2022-08-05T02:54:37;97865.70;;;13.69;74.34
53526;BME280;40551;50.478;19.378;2022-08-05T02:57:13;97868.15;;;13.68;74.39
53526;BME280;40551;50.478;19.378;2022-08-05T03:00:08;97868.89;;;13.65;74.37
53526;BME280;40551;50.478;19.378;2022-08-05T03:02:39;97867.38;;;13.63;74.50
53526;BME280;40551;50.478;19.378;2022-08-05T03:05:13;97866.17;;;13.61;74.52
53526;BME280;40551;50.478;19.378;2022-08-05T03:07:42;97866.97;;;13.58;74.41
53526;BME280;40551;50.478;19.378;2022-08-05T03:10:31;97863.23;;;13.56;74.50
53526;BME280;40551;50.478;19.378;2022-08-05T03:13:00;97862.67;;;13.56;74.65
53526;BME280;40551;50.478;19.378;2022-08-05T03:15:28;97859.86;;;13.58;74.79
53526;BME280;40551;50.478;19.378;2022-08-05T03:17:56;97861.48;;;13.59;74.74
53526;BME280;40551;50.478;19.378;2022-08-05T03:20:25;97859.98;;;13.59;74.70
53526;BME280;40551;50.478;19.378;2022-08-05T03:22:54;97860.72;;;13.56;74.61
53526;BME280;40551;50.478;19.378;2022-08-05T03:25:25;97857.55;;;13.55;74.71
53526;BME280;40551;50.478;19.378;2022-08-05T03:28:14;97857.76;;;13.53;74.72
53526;BME280;40551;50.478;19.378;2022-08-05T03:30:48;97855.65;;;13.51;74.90
53526;BME280;40551;50.478;19.378;2022-08-05T03:33:18;97859.55;;;13.52;75.07
53526;BME280;40551;50.478;19.378;2022-08-05T03:35:47;97855.46;;;13.57;75.29
53526;BME280;40551;50.478;19.378;2022-08-05T03:38:17;97853.44;;;13.62;75.15
53526;BME280;40551;50.478;19.378;2022-08-05T03:41:00;97850.63;;;13.63;75.08
53526;BME280;40551;50.478;19.378;2022-08-05T03:43:38;97853.39;;;13.65;75.20
53526;BME280;40551;50.478;19.378;2022-08-05T03:46:26;97851.03;;;14.04;76.68
53526;BME280;40551;50.478;19.378;2022-08-05T03:48:58;97849.14;;;14.61;77.26
53526;BME280;40551;50.478;19.378;2022-08-05T03:51:29;97850.96;;;15.26;77.05
53526;BME280;40551;50.478;19.378;2022-08-05T03:54:25;97851.46;;;16.01;76.15
53526;BME280;40551;50.478;19.378;2022-08-05T03:57:18;97851.10;;;16.70;74.68
53526;BME280;40551;50.478;19.378;2022-08-05T04:00:12;97846.67;;;17.32;73.14
53526;BME280;40551;50.478;19.378;2022-08-05T04:02:47;97844.23;;;17.84;71.83
53526;BME280;40551;50.478;19.378;2022-08-05T04:05:29;97847.61;;;18.34;70.71
53526;BME280;40551;50.478;19.378;2022-08-05T04:08:05;97848.21;;;18.84;69.71
53526;BME280;40551;50.478;19.378;2022-08-05T04:10:54;97844.30;;;19.53;68.83
53526;BME280;40551;50.478;19.378;2022-08-05T04:13:22;97842.70;;;20.09;67.38
53526;BME280;40551;50.478;19.378;2022-08-05T04:15:50;97845.68;;;20.58;65.67
53526;BME280;40551;50.478;19.378;2022-08-05T04:18:31;97848.68;;;21.14;64.77
53526;BME280;40551;50.478;19.378;2022-08-05T04:21:02;97846.25;;;21.57;63.88
53526;BME280;40551;50.478;19.378;2022-08-05T04:23:33;97843.59;;;22.22;63.04
53526;BME280;40551;50.478;19.378;2022-08-05T04:26:21;97848.08;;;22.96;61.31
53526;BME280;40551;50.478;19.378;2022-08-05T04:28:49;97843.58;;;23.43;59.41
53526;BME280;40551;50.478;19.378;2022-08-05T04:31:19;97837.26;;;23.86;57.96
53526;BME280;40551;50.478;19.378;2022-08-05T04:33:48;97839.84;;;24.24;56.94
53526;BME280;40551;50.478;19.378;2022-08-05T04:36:36;97843.79;;;24.77;55.97
53526;BME280;40551;50.478;19.378;2022-08-05T04:39:13;97843.48;;;25.23;54.70
53526;BME280;40551;50.478;19.378;2022-08-05T04:41:41;97840.61;;;25.55;53.34
53526;BME280;40551;50.478;19.378;2022-08-05T04:44:11;97846.08;;;25.92;52.85
53526;BME280;40551;50.478;19.378;2022-08-05T04:46:40;97844.92;;;26.32;51.97
53526;BME280;40551;50.478;19.378;2022-08-05T04:49:14;97845.55;;;26.79;51.35
53526;BME280;40551;50.478;19.378;2022-08-05T04:51:43;97845.08;;;27.20;50.62
53526;BME280;40551;50.478;19.378;2022-08-05T04:54:11;97847.42;;;27.54;49.20
53526;BME280;40551;50.478;19.378;2022-08-05T04:56:41;97845.54;;;27.94;48.88
53526;BME280;40551;50.478;19.378;2022-08-05T04:59:11;97847.34;;;28.32;47.96
53526;BME280;40551;50.478;19.378;2022-08-05T05:01:50;97842.88;;;28.78;47.34
53526;BME280;40551;50.478;19.378;2022-08-05T05:04:35;97842.12;;;29.26;46.27
53526;BME280;40551;50.478;19.378;2022-08-05T05:07:05;97844.13;;;29.53;45.46
53526;BME280;40551;50.478;19.378;2022-08-05T05:09:36;97844.24;;;29.76;44.92
53526;BME280;40551;50.478;19.378;2022-08-05T05:12:06;97840.61;;;30.09;44.88
53526;BME280;40551;50.478;19.378;2022-08-05T05:14:34;97847.08;;;30.52;44.13
53526;BME280;40551;50.478;19.378;2022-08-05T05:17:03;97850.27;;;30.89;43.05
53526;BME280;40551;50.478;19.378;2022-08-05T05:19:36;97854.19;;;31.39;42.41
53526;BME280;40551;50.478;19.378;2022-08-05T05:22:11;97848.42;;;31.88;41.33
53526;BME280;40551;50.478;19.378;2022-08-05T05:24:53;97852.56;;;32.39;40.55
53526;BME280;40551;50.478;19.378;2022-08-05T05:27:27;97848.21;;;32.86;40.06
53526;BME280;40551;50.478;19.378;2022-08-05T05:30:14;97853.71;;;33.26;38.64
53526;BME280;40551;50.478;19.378;2022-08-05T05:32:59;97851.79;;;33.63;37.61
53526;BME280;40551;50.478;19.378;2022-08-05T05:35:43;97855.93;;;34.05;37.02
53526;BME280;40551;50.478;19.378;2022-08-05T05:38:12;97853.58;;;34.47;36.61
53526;BME280;40551;50.478;19.378;2022-08-05T05:40:42;97854.94;;;34.91;35.69
53526;BME280;40551;50.478;19.378;2022-08-05T05:43:18;97855.55;;;35.32;34.94
53526;BME280;40551;50.478;19.378;2022-08-05T05:46:07;97858.86;;;35.70;34.19
53526;BME280;40551;50.478;19.378;2022-08-05T05:48:43;97859.41;;;35.90;33.24
53526;BME280;40551;50.478;19.378;2022-08-05T05:51:18;97860.23;;;36.12;32.54
53526;BME280;40551;50.478;19.378;2022-08-05T05:53:47;97860.01;;;36.32;32.11
53526;BME280;40551;50.478;19.378;2022-08-05T05:56:27;97854.94;;;36.51;31.80
53526;BME280;40551;50.478;19.378;2022-08-05T05:59:02;97855.35;;;36.66;31.34
53526;BME280;40551;50.478;19.378;2022-08-05T06:01:34;97857.46;;;36.82;31.03
53526;BME280;40551;50.478;19.378;2022-08-05T06:04:07;97860.39;;;36.97;30.27
53526;BME280;40551;50.478;19.378;2022-08-05T06:06:40;97854.67;;;37.05;30.04
53526;BME280;40551;50.478;19.378;2022-08-05T06:09:08;97860.18;;;37.10;29.86
53526;BME280;40551;50.478;19.378;2022-08-05T06:11:52;97855.85;;;37.19;29.99
53526;BME280;40551;50.478;19.378;2022-08-05T06:14:29;97860.50;;;37.45;29.66
53526;BME280;40551;50.478;19.378;2022-08-05T06:16:58;97861.31;;;37.64;29.26
53526;BME280;40551;50.478;19.378;2022-08-05T06:19:26;97858.86;;;37.79;29.05
53526;BME280;40551;50.478;19.378;2022-08-05T06:22:02;97859.69;;;37.94;28.57
53526;BME280;40551;50.478;19.378;2022-08-05T06:24:31;97860.11;;;37.95;28.40
53526;BME280;40551;50.478;19.378;2022-08-05T06:26:59;97859.27;;;38.25;28.38
53526;BME280;40551;50.478;19.378;2022-08-05T06:29:28;97857.70;;;38.36;27.53
53526;BME280;40551;50.478;19.378;2022-08-05T06:32:16;97855.91;;;38.07;27.41
53526;BME280;40551;50.478;19.378;2022-08-05T06:34:54;97857.23;;;38.22;27.72
53526;BME280;40551;50.478;19.378;2022-08-05T06:37:26;97853.63;;;38.26;27.71
53526;BME280;40551;50.478;19.378;2022-08-05T06:40:13;97855.79;;;38.38;27.77
53526;BME280;40551;50.478;19.378;2022-08-05T06:42:49;97852.95;;;38.27;27.50
53526;BME280;40551;50.478;19.378;2022-08-05T06:45:20;97854.98;;;38.13;26.92
53526;BME280;40551;50.478;19.378;2022-08-05T06:48:09;97853.92;;;37.92;27.31
53526;BME280;40551;50.478;19.378;2022-08-05T06:50:57;97859.93;;;37.77;27.08
53526;BME280;40551;50.478;19.378;2022-08-05T06:53:27;97861.55;;;37.56;27.07
53526;BME280;40551;50.478;19.378;2022-08-05T06:55:57;97858.92;;;37.49;27.63
53526;BME280;40551;50.478;19.378;2022-08-05T06:58:27;97853.59;;;37.74;27.87
53526;BME280;40551;50.478;19.378;2022-08-05T07:01:04;97855.63;;;38.00;27.85
53526;BME280;40551;50.478;19.378;2022-08-05T07:03:34;97852.91;;;38.23;27.33
53526;BME280;40551;50.478;19.378;2022-08-05T07:06:03;97854.37;;;38.16;26.73
53526;BME280;40551;50.478;19.378;2022-08-05T07:08:41;97849.96;;;37.72;26.80
53526;BME280;40551;50.478;19.378;2022-08-05T07:11:15;97848.12;;;37.49;26.95
53526;BME280;40551;50.478;19.378;2022-08-05T07:13:49;97848.33;;;37.22;26.81
53526;BME280;40551;50.478;19.378;2022-08-05T07:16:48;97847.81;;;36.94;27.38
53526;BME280;40551;50.478;19.378;2022-08-05T07:19:36;97843.57;;;36.84;27.45
53526;BME280;40551;50.478;19.378;2022-08-05T07:22:24;97841.92;;;36.77;27.48
53526;BME280;40551;50.478;19.378;2022-08-05T07:24:58;97838.95;;;36.62;27.81
53526;BME280;40551;50.478;19.378;2022-08-05T07:27:47;97842.98;;;36.71;28.40
53526;BME280;40551;50.478;19.378;2022-08-05T07:30:30;97840.61;;;36.98;28.23
53526;BME280;40551;50.478;19.378;2022-08-05T07:33:01;97839.58;;;37.07;27.98
53526;BME280;40551;50.478;19.378;2022-08-05T07:35:37;97841.82;;;36.86;27.57
53526;BME280;40551;50.478;19.378;2022-08-05T07:38:26;97842.09;;;36.64;28.49
53526;BME280;40551;50.478;19.378;2022-08-05T07:41:04;97844.80;;;36.39;28.66
53526;BME280;40551;50.478;19.378;2022-08-05T07:43:52;97841.69;;;35.69;28.69
53526;BME280;40551;50.478;19.378;2022-08-05T07:46:25;97845.52;;;35.06;29.72
53526;BME280;40551;50.478;19.378;2022-08-05T07:48:54;97841.78;;;34.49;30.20
53526;BME280;40551;50.478;19.378;2022-08-05T07:51:33;97840.87;;;33.75;30.74
53526;BME280;40551;50.478;19.378;2022-08-05T07:54:08;97834.88;;;33.13;31.41
53526;BME280;40551;50.478;19.378;2022-08-05T07:56:38;97836.36;;;32.52;32.50
53526;BME280;40551;50.478;19.378;2022-08-05T07:59:27;97837.66;;;32.09;33.32
53526;BME280;40551;50.478;19.378;2022-08-05T08:02:08;97835.37;;;31.78;33.55
53526;BME280;40551;50.478;19.378;2022-08-05T08:04:42;97835.52;;;31.62;34.06
53526;BME280;40551;50.478;19.378;2022-08-05T08:07:13;97833.16;;;31.34;34.92
53526;BME280;40551;50.478;19.378;2022-08-05T08:09:42;97834.03;;;31.11;35.52
53526;BME280;40551;50.478;19.378;2022-08-05T08:12:11;97836.27;;;30.92;36.05
53526;BME280;40551;50.478;19.378;2022-08-05T08:15:00;97842.98;;;30.85;36.86
53526;BME280;40551;50.478;19.378;2022-08-05T08:17:31;97845.38;;;30.81;36.23
53526;BME280;40551;50.478;19.378;2022-08-05T08:19:59;97842.89;;;30.81;36.51
53526;BME280;40551;50.478;19.378;2022-08-05T08:22:51;97843.15;;;30.73;37.00
53526;BME280;40551;50.478;19.378;2022-08-05T08:25:20;97838.39;;;30.60;37.20
53526;BME280;40551;50.478;19.378;2022-08-05T08:28:03;97842.41;;;30.54;38.00
53526;BME280;40551;50.478;19.378;2022-08-05T08:30:32;97842.71;;;30.49;38.25
53526;BME280;40551;50.478;19.378;2022-08-05T08:33:16;97840.02;;;30.48;37.89
53526;BME280;40551;50.478;19.378;2022-08-05T08:35:47;97834.60;;;30.50;38.20
53526;BME280;40551;50.478;19.378;2022-08-05T08:38:30;97835.70;;;30.54;38.12
53526;BME280;40551;50.478;19.378;2022-08-05T08:41:09;97836.88;;;30.38;37.65
53526;BME280;40551;50.478;19.378;2022-08-05T08:43:42;97833.04;;;30.18;37.78
53526;BME280;40551;50.478;19.378;2022-08-05T08:46:31;97831.66;;;30.15;38.58
53526;BME280;40551;50.478;19.378;2022-08-05T08:49:02;97832.03;;;30.10;38.86
53526;BME280;40551;50.478;19.378;2022-08-05T08:51:57;97831.88;;;30.10;39.55
53526;BME280;40551;50.478;19.378;2022-08-05T08:54:33;97835.65;;;30.06;39.10
53526;BME280;40551;50.478;19.378;2022-08-05T08:57:04;97838.88;;;30.07;39.91
53526;BME280;40551;50.478;19.378;2022-08-05T08:59:39;97836.06;;;30.12;40.39
53526;BME280;40551;50.478;19.378;2022-08-05T09:02:15;97837.70;;;30.24;40.52
53526;BME280;40551;50.478;19.378;2022-08-05T09:04:46;97834.90;;;30.35;39.33
53526;BME280;40551;50.478;19.378;2022-08-05T09:07:34;97838.83;;;30.38;38.84
53526;BME280;40551;50.478;19.378;2022-08-05T09:10:23;97837.98;;;30.44;38.35
53526;BME280;40551;50.478;19.378;2022-08-05T09:12:56;97838.20;;;30.47;38.71
53526;BME280;40551;50.478;19.378;2022-08-05T09:15:32;97835.43;;;30.53;39.10
53526;BME280;40551;50.478;19.378;2022-08-05T09:18:07;97832.22;;;30.61;38.63
53526;BME280;40551;50.478;19.378;2022-08-05T09:20:36;97834.16;;;30.64;38.96
53526;BME280;40551;50.478;19.378;2022-08-05T09:23:11;97827.05;;;30.64;38.49
53526;BME280;40551;50.478;19.378;2022-08-05T09:25:48;97825.46;;;30.71;38.44
53526;BME280;40551;50.478;19.378;2022-08-05T09:28:35;97826.83;;;30.76;38.25
53526;BME280;40551;50.478;19.378;2022-08-05T09:31:05;97819.73;;;30.75;38.21
53526;BME280;40551;50.478;19.378;2022-08-05T09:33:55;97817.83;;;30.62;38.50
53526;BME280;40551;50.478;19.378;2022-08-05T09:36:25;97817.08;;;30.62;38.60
53526;BME280;40551;50.478;19.378;2022-08-05T09:39:06;97815.63;;;30.63;38.87
53526;BME280;40551;50.478;19.378;2022-08-05T09:41:56;97816.51;;;30.76;38.90
53526;BME280;40551;50.478;19.378;2022-08-05T09:44:36;97816.44;;;30.89;38.98
53526;BME280;40551;50.478;19.378;2022-08-05T09:47:10;97817.94;;;30.90;38.54
53526;BME280;40551;50.478;19.378;2022-08-05T09:49:45;97817.69;;;30.95;38.79
53526;BME280;40551;50.478;19.378;2022-08-05T09:52:32;97815.25;;;30.82;38.43
53526;BME280;40551;50.478;19.378;2022-08-05T09:55:03;97813.81;;;30.73;38.19
53526;BME280;40551;50.478;19.378;2022-08-05T09:57:52;97808.77;;;30.67;38.83
53526;BME280;40551;50.478;19.378;2022-08-05T10:00:26;97808.80;;;30.65;38.70
53526;BME280;40551;50.478;19.378;2022-08-05T10:02:58;97804.35;;;30.66;38.73
53526;BME280;40551;50.478;19.378;2022-08-05T10:05:37;97805.80;;;30.67;39.36
53526;BME280;40551;50.478;19.378;2022-08-05T10:08:08;97804.84;;;30.69;39.09
53526;BME280;40551;50.478;19.378;2022-08-05T10:10:57;97806.86;;;30.82;38.91
53526;BME280;40551;50.478;19.378;2022-08-05T10:13:27;97807.20;;;30.93;38.74
53526;BME280;40551;50.478;19.378;2022-08-05T10:16:29;97807.85;;;31.08;38.18
53526;BME280;40551;50.478;19.378;2022-08-05T10:19:00;97803.12;;;31.19;37.24
53526;BME280;40551;50.478;19.378;2022-08-05T10:21:35;97803.95;;;31.31;36.90
53526;BME280;40551;50.478;19.378;2022-08-05T10:24:08;97805.01;;;31.39;36.54
53526;BME280;40551;50.478;19.378;2022-08-05T10:26:40;97805.26;;;31.50;37.51
53526;BME280;40551;50.478;19.378;2022-08-05T10:29:19;97803.99;;;31.59;37.99
53526;BME280;40551;50.478;19.378;2022-08-05T10:32:08;97797.31;;;31.66;37.53
53526;BME280;40551;50.478;19.378;2022-08-05T10:34:57;97799.82;;;31.72;36.52
53526;BME280;40551;50.478;19.378;2022-08-05T10:37:29;97796.48;;;31.75;36.43
53526;BME280;40551;50.478;19.378;2022-08-05T10:40:19;97800.82;;;31.80;36.32
53526;BME280;40551;50.478;19.378;2022-08-05T10:43:01;97797.38;;;31.79;35.96
53526;BME280;40551;50.478;19.378;2022-08-05T10:45:32;97789.12;;;31.85;35.97
53526;BME280;40551;50.478;19.378;2022-08-05T10:48:32;97788.04;;;31.87;36.04
53526;BME280;40551;50.478;19.378;2022-08-05T10:51:21;97781.63;;;31.88;35.68
53526;BME280;40551;50.478;19.378;2022-08-05T10:53:58;97783.52;;;31.90;35.26
53526;BME280;40551;50.478;19.378;2022-08-05T10:56:30;97786.66;;;31.82;35.42
53526;BME280;40551;50.478;19.378;2022-08-05T10:59:06;97786.56;;;31.81;35.52
53526;BME280;40551;50.478;19.378;2022-08-05T11:02:10;97788.03;;;31.85;35.51
53526;BME280;40551;50.478;19.378;2022-08-05T11:04:59;97787.83;;;31.86;34.28
53526;BME280;40551;50.478;19.378;2022-08-05T11:07:30;97787.98;;;31.89;34.37
53526;BME280;40551;50.478;19.378;2022-08-05T11:10:23;97785.13;;;31.96;34.03
53526;BME280;40551;50.478;19.378;2022-08-05T11:12:56;97783.62;;;31.99;33.93
53526;BME280;40551;50.478;19.378;2022-08-05T11:15:26;97784.83;;;32.05;34.23
53526;BME280;40551;50.478;19.378;2022-08-05T11:18:26;97781.10;;;32.06;33.24
53526;BME280;40551;50.478;19.378;2022-08-05T11:20:56;97779.27;;;31.96;32.72
53526;BME280;40551;50.478;19.378;2022-08-05T11:23:39;97774.50;;;31.92;33.66
53526;BME280;40551;50.478;19.378;2022-08-05T11:26:28;97773.98;;;31.92;33.34
53526;BME280;40551;50.478;19.378;2022-08-05T11:29:36;97776.73;;;31.90;33.31
53526;BME280;40551;50.478;19.378;2022-08-05T11:32:27;97774.98;;;31.82;32.82
53526;BME280;40551;50.478;19.378;2022-08-05T11:34:57;97777.39;;;31.74;32.95
53526;BME280;40551;50.478;19.378;2022-08-05T11:37:58;97773.04;;;31.66;32.16
53526;BME280;40551;50.478;19.378;2022-08-05T11:40:59;97772.16;;;31.55;32.40
53526;BME280;40551;50.478;19.378;2022-08-05T11:43:55;97774.78;;;31.58;33.01
53526;BME280;40551;50.478;19.378;2022-08-05T11:46:37;97771.14;;;31.69;33.89
53526;BME280;40551;50.478;19.378;2022-08-05T11:49:26;97774.56;;;31.80;33.49
53526;BME280;40551;50.478;19.378;2022-08-05T11:51:55;97773.83;;;31.86;33.19
53526;BME280;40551;50.478;19.378;2022-08-05T11:54:26;97775.19;;;31.91;32.74
53526;BME280;40551;50.478;19.378;2022-08-05T11:57:02;97776.52;;;31.91;32.21
53526;BME280;40551;50.478;19.378;2022-08-05T11:59:51;97780.39;;;31.90;32.23
53526;BME280;40551;50.478;19.378;2022-08-05T12:02:25;97779.31;;;31.93;32.44
53526;BME280;40551;50.478;19.378;2022-08-05T12:05:02;97775.41;;;31.87;31.46
53526;BME280;40551;50.478;19.378;2022-08-05T12:07:36;97776.77;;;31.78;31.57
53526;BME280;40551;50.478;19.378;2022-08-05T12:10:26;97773.02;;;31.76;31.86
53526;BME280;40551;50.478;19.378;2022-08-05T12:13:13;97779.75;;;31.73;31.61
53526;BME280;40551;50.478;19.378;2022-08-05T12:15:44;97773.29;;;31.72;32.06
53526;BME280;40551;50.478;19.378;2022-08-05T12:18:18;97776.14;;;31.74;31.49
53526;BME280;40551;50.478;19.378;2022-08-05T12:20:51;97770.77;;;31.70;31.09
53526;BME280;40551;50.478;19.378;2022-08-05T12:23:20;97764.27;;;31.71;31.67
53526;BME280;40551;50.478;19.378;2022-08-05T12:25:50;97767.33;;;31.74;31.45
53526;BME280;40551;50.478;19.378;2022-08-05T12:28:34;97764.95;;;31.73;31.32
53526;BME280;40551;50.478;19.378;2022-08-05T12:31:04;97760.70;;;31.75;31.53
53526;BME280;40551;50.478;19.378;2022-08-05T12:33:33;97758.59;;;31.75;31.59
53526;BME280;40551;50.478;19.378;2022-08-05T12:36:05;97757.42;;;31.73;30.98
53526;BME280;40551;50.478;19.378;2022-08-05T12:38:36;97760.50;;;31.70;30.71
53526;BME280;40551;50.478;19.378;2022-08-05T12:41:08;97754.30;;;31.72;31.61
53526;BME280;40551;50.478;19.378;2022-08-05T12:43:52;97753.36;;;31.82;31.89
53526;BME280;40551;50.478;19.378;2022-08-05T12:46:22;97748.36;;;31.95;32.03
53526;BME280;40551;50.478;19.378;2022-08-05T12:48:58;97750.16;;;32.06;31.80
53526;BME280;40551;50.478;19.378;2022-08-05T12:51:27;97749.23;;;32.04;30.79
53526;BME280;40551;50.478;19.378;2022-08-05T12:54:19;97748.46;;;31.97;30.79
53526;BME280;40551;50.478;19.378;2022-08-05T12:56:55;97746.23;;;31.96;31.10
53526;BME280;40551;50.478;19.378;2022-08-05T12:59:25;97739.65;;;31.96;30.98
53526;BME280;40551;50.478;19.378;2022-08-05T13:02:17;97736.46;;;31.98;30.84
53526;BME280;40551;50.478;19.378;2022-08-05T13:04:48;97738.39;;;32.08;31.02
53526;BME280;40551;50.478;19.378;2022-08-05T13:07:23;97736.58;;;32.10;31.70
53526;BME280;40551;50.478;19.378;2022-08-05T13:10:13;97733.77;;;32.09;30.78
53526;BME280;40551;50.478;19.378;2022-08-05T13:12:47;97731.51;;;32.01;30.39
53526;BME280;40551;50.478;19.378;2022-08-05T13:15:30;97733.34;;;31.99;30.41
53526;BME280;40551;50.478;19.378;2022-08-05T13:18:18;97733.30;;;31.96;30.18
53526;BME280;40551;50.478;19.378;2022-08-05T13:20:47;97726.95;;;31.94;30.42
53526;BME280;40551;50.478;19.378;2022-08-05T13:23:17;97726.68;;;31.95;32.08
53526;BME280;40551;50.478;19.378;2022-08-05T13:25:50;97723.23;;;31.99;32.15
53526;BME280;40551;50.478;19.378;2022-08-05T13:28:28;97720.53;;;32.09;31.56
53526;BME280;40551;50.478;19.378;2022-08-05T13:30:59;97719.17;;;32.20;31.21
53526;BME280;40551;50.478;19.378;2022-08-05T13:33:41;97719.64;;;32.32;30.95
53526;BME280;40551;50.478;19.378;2022-08-05T13:36:30;97719.29;;;32.42;30.51
53526;BME280;40551;50.478;19.378;2022-08-05T13:38:58;97722.02;;;32.43;29.74
53526;BME280;40551;50.478;19.378;2022-08-05T13:41:26;97718.30;;;32.46;29.59
53526;BME280;40551;50.478;19.378;2022-08-05T13:44:04;97716.13;;;32.51;29.70
53526;BME280;40551;50.478;19.378;2022-08-05T13:46:33;97712.42;;;32.58;29.87